Kirkville, IA

00:22 CDT le 28 août 2014 (GMT -0500)
Ottumwa Industrial | Change Station
CLOSE
Current Station
Aéroport
Location: Ottumwa,
Altitude: 843 ft
Stations météo à proximité

Alt. 843 ft 41.11 °N, 92.45 °W | Updated 29 minutes ago

Mostly Cloudy
Nuageux
70 ° F
Paraît 70 ° F
N
6
Vent Variable Vent de ENE

Aujourd'hui
Haut(e) -- | Bas -- ° F
--% Risque de précip.
Hier
Haut(e) -- | Bas -- ° F
Precip. -- pouce
6:32 AM 7:48 PM
Lune montante, 6% visible
Pression 30.08 pouce
Visibilité 10.0 Miles terrestres
Nuages Nuageux 11000 ft
Point de rosée 67 ° F
Humidité 90%
Précipitations 0.10 pouce
Profondeur de la couche neigeuse Non disponible.
UV 0 sur 12
Pollen 4.30 sur 12
Qualité de l'air Non disponible.
Flu Activity Non disponible.
METAR KOTM 280453Z AUTO 07005KT 10SM BKN110 21/19 A3009 RMK AO2 SLP185 T02110194

More Conditions Fewer Conditions

Pression 30.08 pouce
Visibilité 10.0 Miles terrestres
Nuages Nuageux 11000 ft
Point de rosée 67 ° F
Humidité 90%
Précipitations 0.10 pouce
Profondeur de la couche neigeuse Non disponible.
UV 0 sur 12
Pollen 4.30 sur 12
Qualité de l'air Non disponible.
Flu Activity Non disponible.
METAR KOTM 280453Z AUTO 07005KT 10SM BKN110 21/19 A3009 RMK AO2 SLP185 T02110194

More Conditions Fewer Conditions

10-Day Weather Forecast

Almanac

Astronomie

Aug. 28, 2014 Lever Coucher
Temps réel 06:32 CDT 19:48 CDT
Crépuscule civil 06:03 CDT 20:17 CDT
Crépuscule nautique 05:29 CDT 20:51 CDT
Crépuscule astronomique 04:53 CDT 21:27 CDT
Lune 09:27 CDT 21:10 CDT
Durée de lumière visible 14h 13m
Longueur du jour
13h 16m
Tomorrow will be 2m 35s shorter.
Lune montante, 6% of the Moon is Illuminated
Aujourd'hui
Lune montante
Sep 2
Premier quartier
Sep 8
Pleine lune
Sep 15
Dernier quartier
Sep 24
Nouveau

Extrêmes aujourd'hui

State Highs State Lows

Community

WunderPhotos

Upload Photos

1,747,909 Photos téléchargées !

Nearby

Épaisseur de neige

Station Depth Altitude
Pas de nouvelles chutes de neige

Activité sismique

Ville Distance Mag. Time & Date
No recent earthquake activity has been reported nearby.
Minimum magnitude displayed is 2.5.

Températures des eaux côtières

Lieu Température
Aucun rapport de station

Stations météo à proximité